sensor_id;sensor_type;location;lat;lon;timestamp;P1;durP1;ratioP1;P2;durP2;ratioP2
2896;SDS011;1458;49.728;9.228;2022-09-16T00:01:14;0.20;;;0.20;;
2896;SDS011;1458;49.728;9.228;2022-09-16T00:03:44;0.20;;;0.20;;
2896;SDS011;1458;49.728;9.228;2022-09-16T00:06:15;0.10;;;0.10;;
2896;SDS011;1458;49.728;9.228;2022-09-16T00:08:45;0.20;;;0.20;;
2896;SDS011;1458;49.728;9.228;2022-09-16T00:11:13;0.20;;;0.20;;
2896;SDS011;1458;49.728;9.228;2022-09-16T00:13:41;0.20;;;0.20;;
2896;SDS011;1458;49.728;9.228;2022-09-16T00:16:10;0.20;;;0.20;;
2896;SDS011;1458;49.728;9.228;2022-09-16T00:18:42;0.10;;;0.10;;
2896;SDS011;1458;49.728;9.228;2022-09-16T00:21:13;0.20;;;0.20;;
2896;SDS011;1458;49.728;9.228;2022-09-16T00:23:40;0.20;;;0.20;;
2896;SDS011;1458;49.728;9.228;2022-09-16T00:26:08;0.10;;;0.10;;
2896;SDS011;1458;49.728;9.228;2022-09-16T00:28:35;0.20;;;0.20;;
2896;SDS011;1458;49.728;9.228;2022-09-16T00:31:06;0.20;;;0.20;;
2896;SDS011;1458;49.728;9.228;2022-09-16T00:33:35;0.10;;;0.10;;
2896;SDS011;1458;49.728;9.228;2022-09-16T00:36:09;0.10;;;0.10;;
2896;SDS011;1458;49.728;9.228;2022-09-16T00:38:43;0.10;;;0.10;;
2896;SDS011;1458;49.728;9.228;2022-09-16T00:41:11;0.20;;;0.20;;
2896;SDS011;1458;49.728;9.228;2022-09-16T00:43:48;0.10;;;0.10;;
2896;SDS011;1458;49.728;9.228;2022-09-16T00:46:19;0.10;;;0.10;;
2896;SDS011;1458;49.728;9.228;2022-09-16T00:48:56;0.10;;;0.10;;
2896;SDS011;1458;49.728;9.228;2022-09-16T00:51:27;0.10;;;0.10;;
2896;SDS011;1458;49.728;9.228;2022-09-16T00:53:56;0.10;;;0.10;;
2896;SDS011;1458;49.728;9.228;2022-09-16T00:56:28;0.20;;;0.20;;
2896;SDS011;1458;49.728;9.228;2022-09-16T00:59:02;0.20;;;0.20;;
2896;SDS011;1458;49.728;9.228;2022-09-16T01:01:35;0.20;;;0.20;;
2896;SDS011;1458;49.728;9.228;2022-09-16T01:04:08;0.10;;;0.10;;
2896;SDS011;1458;49.728;9.228;2022-09-16T01:06:42;0.20;;;0.20;;
2896;SDS011;1458;49.728;9.228;2022-09-16T01:09:10;0.20;;;0.20;;
2896;SDS011;1458;49.728;9.228;2022-09-16T01:11:38;0.13;;;0.13;;
2896;SDS011;1458;49.728;9.228;2022-09-16T01:14:05;0.20;;;0.20;;
2896;SDS011;1458;49.728;9.228;2022-09-16T01:16:53;0.20;;;0.20;;
2896;SDS011;1458;49.728;9.228;2022-09-16T01:22:35;0.17;;;0.17;;
2896;SDS011;1458;49.728;9.228;2022-09-16T01:25:18;0.20;;;0.20;;
2896;SDS011;1458;49.728;9.228;2022-09-16T01:28:05;0.20;;;0.20;;
2896;SDS011;1458;49.728;9.228;2022-09-16T01:30:59;0.20;;;0.20;;
2896;SDS011;1458;49.728;9.228;2022-09-16T01:33:40;0.10;;;0.10;;
2896;SDS011;1458;49.728;9.228;2022-09-16T01:36:25;0.20;;;0.20;;
2896;SDS011;1458;49.728;9.228;2022-09-16T01:39:12;0.20;;;0.20;;
2896;SDS011;1458;49.728;9.228;2022-09-16T01:41:55;0.10;;;0.10;;
2896;SDS011;1458;49.728;9.228;2022-09-16T01:44:38;0.10;;;0.10;;
2896;SDS011;1458;49.728;9.228;2022-09-16T01:47:16;0.20;;;0.20;;
2896;SDS011;1458;49.728;9.228;2022-09-16T01:49:52;0.20;;;0.20;;
2896;SDS011;1458;49.728;9.228;2022-09-16T01:52:29;0.20;;;0.20;;
2896;SDS011;1458;49.728;9.228;2022-09-16T01:55:05;0.20;;;0.20;;
2896;SDS011;1458;49.728;9.228;2022-09-16T01:57:37;0.20;;;0.20;;
2896;SDS011;1458;49.728;9.228;2022-09-16T02:00:13;0.30;;;0.30;;
2896;SDS011;1458;49.728;9.228;2022-09-16T02:02:43;0.10;;;0.10;;
2896;SDS011;1458;49.728;9.228;2022-09-16T02:05:17;0.10;;;0.10;;
2896;SDS011;1458;49.728;9.228;2022-09-16T02:07:53;0.20;;;0.20;;
2896;SDS011;1458;49.728;9.228;2022-09-16T02:10:26;0.20;;;0.20;;
2896;SDS011;1458;49.728;9.228;2022-09-16T02:12:58;0.17;;;0.17;;
2896;SDS011;1458;49.728;9.228;2022-09-16T02:15:29;0.20;;;0.20;;
2896;SDS011;1458;49.728;9.228;2022-09-16T02:18:01;0.20;;;0.20;;
2896;SDS011;1458;49.728;9.228;2022-09-16T02:20:37;0.20;;;0.20;;
2896;SDS011;1458;49.728;9.228;2022-09-16T02:23:09;0.20;;;0.20;;
2896;SDS011;1458;49.728;9.228;2022-09-16T02:25:42;0.20;;;0.20;;
2896;SDS011;1458;49.728;9.228;2022-09-16T02:28:12;0.20;;;0.20;;
2896;SDS011;1458;49.728;9.228;2022-09-16T02:30:46;0.13;;;0.13;;
2896;SDS011;1458;49.728;9.228;2022-09-16T02:33:18;0.10;;;0.10;;
2896;SDS011;1458;49.728;9.228;2022-09-16T02:35:48;0.10;;;0.10;;
2896;SDS011;1458;49.728;9.228;2022-09-16T02:38:20;0.20;;;0.20;;
2896;SDS011;1458;49.728;9.228;2022-09-16T02:40:51;0.20;;;0.20;;
2896;SDS011;1458;49.728;9.228;2022-09-16T02:43:22;0.10;;;0.10;;
2896;SDS011;1458;49.728;9.228;2022-09-16T02:45:53;0.10;;;0.10;;
2896;SDS011;1458;49.728;9.228;2022-09-16T02:48:45;0.20;;;0.20;;
2896;SDS011;1458;49.728;9.228;2022-09-16T02:51:26;0.20;;;0.20;;
2896;SDS011;1458;49.728;9.228;2022-09-16T02:54:00;0.20;;;0.20;;
2896;SDS011;1458;49.728;9.228;2022-09-16T02:56:35;0.20;;;0.20;;
2896;SDS011;1458;49.728;9.228;2022-09-16T02:59:06;0.20;;;0.20;;
2896;SDS011;1458;49.728;9.228;2022-09-16T03:01:38;0.20;;;0.20;;
2896;SDS011;1458;49.728;9.228;2022-09-16T03:04:09;0.20;;;0.20;;
2896;SDS011;1458;49.728;9.228;2022-09-16T03:06:38;0.20;;;0.20;;
2896;SDS011;1458;49.728;9.228;2022-09-16T03:09:08;0.20;;;0.20;;
2896;SDS011;1458;49.728;9.228;2022-09-16T03:14:51;0.10;;;0.10;;
2896;SDS011;1458;49.728;9.228;2022-09-16T03:17:35;0.20;;;0.20;;
2896;SDS011;1458;49.728;9.228;2022-09-16T03:20:31;0.20;;;0.20;;
2896;SDS011;1458;49.728;9.228;2022-09-16T03:23:08;0.20;;;0.20;;
2896;SDS011;1458;49.728;9.228;2022-09-16T03:25:47;0.20;;;0.20;;
2896;SDS011;1458;49.728;9.228;2022-09-16T03:28:24;0.20;;;0.20;;
2896;SDS011;1458;49.728;9.228;2022-09-16T03:30:59;0.20;;;0.20;;
2896;SDS011;1458;49.728;9.228;2022-09-16T03:33:45;0.20;;;0.20;;
2896;SDS011;1458;49.728;9.228;2022-09-16T03:36:19;0.13;;;0.13;;
2896;SDS011;1458;49.728;9.228;2022-09-16T03:38:53;0.10;;;0.10;;
2896;SDS011;1458;49.728;9.228;2022-09-16T03:41:22;0.20;;;0.20;;
2896;SDS011;1458;49.728;9.228;2022-09-16T03:43:53;0.20;;;0.20;;
2896;SDS011;1458;49.728;9.228;2022-09-16T03:46:22;0.20;;;0.20;;
2896;SDS011;1458;49.728;9.228;2022-09-16T03:48:53;0.20;;;0.20;;
2896;SDS011;1458;49.728;9.228;2022-09-16T03:51:22;0.20;;;0.20;;
2896;SDS011;1458;49.728;9.228;2022-09-16T03:53:50;0.13;;;0.13;;
2896;SDS011;1458;49.728;9.228;2022-09-16T03:56:18;0.20;;;0.20;;
2896;SDS011;1458;49.728;9.228;2022-09-16T03:58:46;0.20;;;0.20;;
2896;SDS011;1458;49.728;9.228;2022-09-16T04:01:13;0.20;;;0.20;;
2896;SDS011;1458;49.728;9.228;2022-09-16T04:03:41;0.20;;;0.20;;
2896;SDS011;1458;49.728;9.228;2022-09-16T04:06:11;0.23;;;0.23;;
2896;SDS011;1458;49.728;9.228;2022-09-16T04:08:40;0.20;;;0.20;;
2896;SDS011;1458;49.728;9.228;2022-09-16T04:11:11;0.20;;;0.20;;
2896;SDS011;1458;49.728;9.228;2022-09-16T04:13:39;0.20;;;0.20;;
2896;SDS011;1458;49.728;9.228;2022-09-16T04:19:00;0.20;;;0.20;;
2896;SDS011;1458;49.728;9.228;2022-09-16T04:21:27;0.20;;;0.20;;
2896;SDS011;1458;49.728;9.228;2022-09-16T04:23:56;0.20;;;0.20;;
2896;SDS011;1458;49.728;9.228;2022-09-16T04:26:24;0.20;;;0.20;;
2896;SDS011;1458;49.728;9.228;2022-09-16T04:28:51;0.20;;;0.20;;
2896;SDS011;1458;49.728;9.228;2022-09-16T04:31:19;0.20;;;0.20;;
2896;SDS011;1458;49.728;9.228;2022-09-16T04:33:47;0.20;;;0.20;;
2896;SDS011;1458;49.728;9.228;2022-09-16T04:36:15;0.30;;;0.30;;
2896;SDS011;1458;49.728;9.228;2022-09-16T04:38:45;0.30;;;0.30;;
2896;SDS011;1458;49.728;9.228;2022-09-16T04:41:18;0.20;;;0.20;;
2896;SDS011;1458;49.728;9.228;2022-09-16T04:43:49;0.23;;;0.23;;
2896;SDS011;1458;49.728;9.228;2022-09-16T04:46:18;0.20;;;0.20;;
2896;SDS011;1458;49.728;9.228;2022-09-16T04:48:46;0.30;;;0.30;;
2896;SDS011;1458;49.728;9.228;2022-09-16T04:51:13;0.30;;;0.30;;
2896;SDS011;1458;49.728;9.228;2022-09-16T04:53:45;0.30;;;0.30;;
2896;SDS011;1458;49.728;9.228;2022-09-16T04:56:15;0.30;;;0.30;;
2896;SDS011;1458;49.728;9.228;2022-09-16T04:58:46;0.30;;;0.30;;
2896;SDS011;1458;49.728;9.228;2022-09-16T05:01:16;0.30;;;0.30;;
2896;SDS011;1458;49.728;9.228;2022-09-16T05:03:47;0.40;;;0.40;;
2896;SDS011;1458;49.728;9.228;2022-09-16T05:06:17;0.30;;;0.30;;
2896;SDS011;1458;49.728;9.228;2022-09-16T05:08:46;0.40;;;0.40;;
2896;SDS011;1458;49.728;9.228;2022-09-16T05:11:15;0.37;;;0.37;;
2896;SDS011;1458;49.728;9.228;2022-09-16T05:13:51;0.50;;;0.50;;
2896;SDS011;1458;49.728;9.228;2022-09-16T05:16:19;0.30;;;0.30;;
2896;SDS011;1458;49.728;9.228;2022-09-16T05:18:49;0.40;;;0.40;;
2896;SDS011;1458;49.728;9.228;2022-09-16T05:21:20;0.40;;;0.40;;
2896;SDS011;1458;49.728;9.228;2022-09-16T05:23:50;0.30;;;0.30;;
2896;SDS011;1458;49.728;9.228;2022-09-16T05:26:22;0.40;;;0.40;;
2896;SDS011;1458;49.728;9.228;2022-09-16T05:28:52;0.50;;;0.50;;
2896;SDS011;1458;49.728;9.228;2022-09-16T05:31:21;0.40;;;0.40;;
2896;SDS011;1458;49.728;9.228;2022-09-16T05:33:52;0.40;;;0.40;;
2896;SDS011;1458;49.728;9.228;2022-09-16T05:36:21;0.40;;;0.40;;
2896;SDS011;1458;49.728;9.228;2022-09-16T05:38:50;0.40;;;0.40;;
2896;SDS011;1458;49.728;9.228;2022-09-16T05:41:17;0.40;;;0.40;;
2896;SDS011;1458;49.728;9.228;2022-09-16T05:43:46;0.30;;;0.30;;
2896;SDS011;1458;49.728;9.228;2022-09-16T05:46:16;0.20;;;0.20;;
2896;SDS011;1458;49.728;9.228;2022-09-16T05:48:45;0.30;;;0.30;;
2896;SDS011;1458;49.728;9.228;2022-09-16T05:51:14;0.20;;;0.20;;
2896;SDS011;1458;49.728;9.228;2022-09-16T05:53:43;0.30;;;0.30;;
2896;SDS011;1458;49.728;9.228;2022-09-16T05:56:12;0.30;;;0.30;;
2896;SDS011;1458;49.728;9.228;2022-09-16T05:58:41;0.30;;;0.30;;
2896;SDS011;1458;49.728;9.228;2022-09-16T06:01:12;0.30;;;0.30;;
2896;SDS011;1458;49.728;9.228;2022-09-16T06:03:41;0.20;;;0.20;;
2896;SDS011;1458;49.728;9.228;2022-09-16T06:06:12;0.30;;;0.30;;
2896;SDS011;1458;49.728;9.228;2022-09-16T06:08:43;0.30;;;0.30;;
2896;SDS011;1458;49.728;9.228;2022-09-16T06:11:14;0.30;;;0.30;;
2896;SDS011;1458;49.728;9.228;2022-09-16T06:13:41;0.30;;;0.30;;
2896;SDS011;1458;49.728;9.228;2022-09-16T06:16:13;0.30;;;0.30;;
2896;SDS011;1458;49.728;9.228;2022-09-16T06:18:40;0.30;;;0.30;;
2896;SDS011;1458;49.728;9.228;2022-09-16T06:21:11;0.30;;;0.30;;
2896;SDS011;1458;49.728;9.228;2022-09-16T06:23:39;0.27;;;0.27;;
2896;SDS011;1458;49.728;9.228;2022-09-16T06:26:13;0.30;;;0.30;;
2896;SDS011;1458;49.728;9.228;2022-09-16T06:28:42;0.40;;;0.40;;
2896;SDS011;1458;49.728;9.228;2022-09-16T06:31:12;0.50;;;0.50;;
2896;SDS011;1458;49.728;9.228;2022-09-16T06:33:43;0.60;;;0.60;;
2896;SDS011;1458;49.728;9.228;2022-09-16T06:36:14;0.50;;;0.50;;
2896;SDS011;1458;49.728;9.228;2022-09-16T06:38:43;0.80;;;0.80;;
2896;SDS011;1458;49.728;9.228;2022-09-16T06:41:12;0.60;;;0.60;;
2896;SDS011;1458;49.728;9.228;2022-09-16T06:43:41;0.70;;;0.70;;
2896;SDS011;1458;49.728;9.228;2022-09-16T06:46:10;0.80;;;0.80;;
2896;SDS011;1458;49.728;9.228;2022-09-16T06:48:42;0.90;;;0.90;;
2896;SDS011;1458;49.728;9.228;2022-09-16T06:51:11;1.20;;;1.20;;
2896;SDS011;1458;49.728;9.228;2022-09-16T06:53:42;1.27;;;1.27;;
2896;SDS011;1458;49.728;9.228;2022-09-16T06:56:11;1.10;;;1.10;;
2896;SDS011;1458;49.728;9.228;2022-09-16T06:58:41;0.90;;;0.90;;
2896;SDS011;1458;49.728;9.228;2022-09-16T07:01:12;1.30;;;1.30;;
2896;SDS011;1458;49.728;9.228;2022-09-16T07:03:43;1.80;;;1.80;;
2896;SDS011;1458;49.728;9.228;2022-09-16T07:06:13;2.50;;;2.50;;
2896;SDS011;1458;49.728;9.228;2022-09-16T07:08:42;2.70;;;2.70;;
2896;SDS011;1458;49.728;9.228;2022-09-16T07:11:17;3.00;;;3.00;;
2896;SDS011;1458;49.728;9.228;2022-09-16T07:13:46;3.10;;;3.10;;
2896;SDS011;1458;49.728;9.228;2022-09-16T07:16:16;2.70;;;2.70;;
2896;SDS011;1458;49.728;9.228;2022-09-16T07:18:46;3.70;;;3.70;;
2896;SDS011;1458;49.728;9.228;2022-09-16T07:21:18;3.20;;;3.20;;
2896;SDS011;1458;49.728;9.228;2022-09-16T07:23:50;4.40;;;4.40;;
2896;SDS011;1458;49.728;9.228;2022-09-16T07:26:22;4.50;;;4.50;;
2896;SDS011;1458;49.728;9.228;2022-09-16T07:28:51;3.70;;;3.70;;
2896;SDS011;1458;49.728;9.228;2022-09-16T07:31:21;4.17;;;4.17;;
2896;SDS011;1458;49.728;9.228;2022-09-16T07:33:52;4.67;;;4.67;;
2896;SDS011;1458;49.728;9.228;2022-09-16T07:36:22;4.40;;;4.40;;
2896;SDS011;1458;49.728;9.228;2022-09-16T07:38:53;4.37;;;4.37;;
2896;SDS011;1458;49.728;9.228;2022-09-16T07:41:23;3.83;;;3.83;;
2896;SDS011;1458;49.728;9.228;2022-09-16T07:43:52;3.30;;;3.30;;
2896;SDS011;1458;49.728;9.228;2022-09-16T07:46:23;3.00;;;3.00;;
2896;SDS011;1458;49.728;9.228;2022-09-16T07:48:53;3.20;;;3.20;;
2896;SDS011;1458;49.728;9.228;2022-09-16T07:51:22;3.57;;;3.57;;
2896;SDS011;1458;49.728;9.228;2022-09-16T07:53:52;2.90;;;2.90;;
2896;SDS011;1458;49.728;9.228;2022-09-16T07:56:22;3.00;;;3.00;;
2896;SDS011;1458;49.728;9.228;2022-09-16T07:58:53;2.80;;;2.80;;
2896;SDS011;1458;49.728;9.228;2022-09-16T08:01:21;2.97;;;2.97;;
2896;SDS011;1458;49.728;9.228;2022-09-16T08:03:49;3.07;;;3.07;;
2896;SDS011;1458;49.728;9.228;2022-09-16T08:06:19;2.50;;;2.50;;
2896;SDS011;1458;49.728;9.228;2022-09-16T08:08:50;2.50;;;2.50;;
2896;SDS011;1458;49.728;9.228;2022-09-16T08:11:19;2.40;;;2.40;;
2896;SDS011;1458;49.728;9.228;2022-09-16T08:13:47;3.00;;;3.00;;
2896;SDS011;1458;49.728;9.228;2022-09-16T08:16:16;2.70;;;2.70;;
2896;SDS011;1458;49.728;9.228;2022-09-16T08:18:46;3.13;;;3.13;;
2896;SDS011;1458;49.728;9.228;2022-09-16T08:21:17;3.70;;;3.70;;
2896;SDS011;1458;49.728;9.228;2022-09-16T08:23:47;3.83;;;3.83;;
2896;SDS011;1458;49.728;9.228;2022-09-16T08:26:16;3.00;;;3.00;;
2896;SDS011;1458;49.728;9.228;2022-09-16T08:28:45;3.90;;;3.90;;
2896;SDS011;1458;49.728;9.228;2022-09-16T08:31:14;4.30;;;4.30;;
2896;SDS011;1458;49.728;9.228;2022-09-16T08:33:43;4.60;;;4.60;;
2896;SDS011;1458;49.728;9.228;2022-09-16T08:36:15;5.17;;;5.17;;
2896;SDS011;1458;49.728;9.228;2022-09-16T08:38:47;5.97;;;5.97;;
2896;SDS011;1458;49.728;9.228;2022-09-16T08:44:25;5.90;;;5.90;;
2896;SDS011;1458;49.728;9.228;2022-09-16T08:47:04;6.10;;;6.10;;
2896;SDS011;1458;49.728;9.228;2022-09-16T08:49:49;6.20;;;6.20;;
2896;SDS011;1458;49.728;9.228;2022-09-16T08:52:22;6.40;;;6.40;;
2896;SDS011;1458;49.728;9.228;2022-09-16T08:54:59;6.60;;;6.50;;
2896;SDS011;1458;49.728;9.228;2022-09-16T08:57:33;6.13;;;6.13;;
2896;SDS011;1458;49.728;9.228;2022-09-16T09:00:07;6.80;;;6.70;;
2896;SDS011;1458;49.728;9.228;2022-09-16T09:02:41;5.60;;;5.60;;
2896;SDS011;1458;49.728;9.228;2022-09-16T09:05:19;5.30;;;5.30;;
2896;SDS011;1458;49.728;9.228;2022-09-16T09:08:02;5.60;;;5.60;;
2896;SDS011;1458;49.728;9.228;2022-09-16T09:10:47;4.60;;;4.60;;
2896;SDS011;1458;49.728;9.228;2022-09-16T09:13:28;5.20;;;5.20;;
2896;SDS011;1458;49.728;9.228;2022-09-16T09:16:24;5.30;;;5.30;;
2896;SDS011;1458;49.728;9.228;2022-09-16T09:19:10;5.67;;;5.67;;
2896;SDS011;1458;49.728;9.228;2022-09-16T09:21:54;5.17;;;5.17;;
2896;SDS011;1458;49.728;9.228;2022-09-16T09:24:43;5.30;;;5.30;;
2896;SDS011;1458;49.728;9.228;2022-09-16T09:27:30;5.80;;;5.80;;
2896;SDS011;1458;49.728;9.228;2022-09-16T09:30:08;5.33;;;5.33;;
2896;SDS011;1458;49.728;9.228;2022-09-16T09:32:46;5.07;;;5.07;;
2896;SDS011;1458;49.728;9.228;2022-09-16T09:35:45;4.30;;;4.30;;
2896;SDS011;1458;49.728;9.228;2022-09-16T09:41:50;4.93;;;4.93;;
2896;SDS011;1458;49.728;9.228;2022-09-16T09:44:32;5.50;;;5.50;;
2896;SDS011;1458;49.728;9.228;2022-09-16T09:47:12;6.77;;;6.67;;
2896;SDS011;1458;49.728;9.228;2022-09-16T09:49:47;6.40;;;6.40;;
2896;SDS011;1458;49.728;9.228;2022-09-16T09:52:20;7.10;;;7.00;;
2896;SDS011;1458;49.728;9.228;2022-09-16T09:54:53;7.00;;;6.90;;
2896;SDS011;1458;49.728;9.228;2022-09-16T09:57:28;7.83;;;7.73;;
2896;SDS011;1458;49.728;9.228;2022-09-16T10:00:10;8.40;;;8.30;;
2896;SDS011;1458;49.728;9.228;2022-09-16T10:02:44;9.30;;;9.10;;
2896;SDS011;1458;49.728;9.228;2022-09-16T10:05:14;10.30;;;10.10;;
2896;SDS011;1458;49.728;9.228;2022-09-16T10:07:48;10.80;;;10.50;;
2896;SDS011;1458;49.728;9.228;2022-09-16T10:10:19;10.60;;;10.40;;
2896;SDS011;1458;49.728;9.228;2022-09-16T10:12:50;11.23;;;10.93;;
2896;SDS011;1458;49.728;9.228;2022-09-16T10:15:23;11.33;;;11.03;;
2896;SDS011;1458;49.728;9.228;2022-09-16T10:17:54;11.67;;;11.37;;
2896;SDS011;1458;49.728;9.228;2022-09-16T10:20:26;11.30;;;11.00;;
2896;SDS011;1458;49.728;9.228;2022-09-16T10:22:58;11.70;;;11.40;;
2896;SDS011;1458;49.728;9.228;2022-09-16T10:25:29;12.10;;;11.80;;
2896;SDS011;1458;49.728;9.228;2022-09-16T10:27:59;12.30;;;12.00;;
2896;SDS011;1458;49.728;9.228;2022-09-16T10:30:31;11.70;;;11.40;;
2896;SDS011;1458;49.728;9.228;2022-09-16T10:33:11;11.70;;;11.40;;
2896;SDS011;1458;49.728;9.228;2022-09-16T10:35:50;11.40;;;11.10;;
2896;SDS011;1458;49.728;9.228;2022-09-16T10:38:22;11.80;;;11.50;;
2896;SDS011;1458;49.728;9.228;2022-09-16T10:40:53;12.13;;;11.83;;
2896;SDS011;1458;49.728;9.228;2022-09-16T10:43:25;11.50;;;11.20;;
2896;SDS011;1458;49.728;9.228;2022-09-16T10:45:56;11.53;;;11.23;;
2896;SDS011;1458;49.728;9.228;2022-09-16T10:48:25;10.80;;;10.50;;
2896;SDS011;1458;49.728;9.228;2022-09-16T10:50:55;10.30;;;10.10;;
2896;SDS011;1458;49.728;9.228;2022-09-16T10:53:26;10.40;;;10.20;;
2896;SDS011;1458;49.728;9.228;2022-09-16T10:55:57;10.80;;;10.50;;
2896;SDS011;1458;49.728;9.228;2022-09-16T10:58:30;11.20;;;10.90;;
2896;SDS011;1458;49.728;9.228;2022-09-16T11:01:13;10.60;;;10.30;;
2896;SDS011;1458;49.728;9.228;2022-09-16T11:04:03;10.90;;;10.60;;
2896;SDS011;1458;49.728;9.228;2022-09-16T11:07:08;10.80;;;10.50;;
2896;SDS011;1458;49.728;9.228;2022-09-16T11:09:47;10.87;;;10.57;;
2896;SDS011;1458;49.728;9.228;2022-09-16T11:12:38;10.50;;;10.30;;
2896;SDS011;1458;49.728;9.228;2022-09-16T11:15:36;10.40;;;10.20;;
2896;SDS011;1458;49.728;9.228;2022-09-16T11:18:23;11.00;;;10.70;;
2896;SDS011;1458;49.728;9.228;2022-09-16T11:21:16;11.50;;;11.20;;
2896;SDS011;1458;49.728;9.228;2022-09-16T11:23:57;10.90;;;10.60;;
2896;SDS011;1458;49.728;9.228;2022-09-16T11:26:49;11.27;;;10.97;;
2896;SDS011;1458;49.728;9.228;2022-09-16T11:29:48;11.57;;;11.27;;
2896;SDS011;1458;49.728;9.228;2022-09-16T11:32:32;11.30;;;11.00;;
2896;SDS011;1458;49.728;9.228;2022-09-16T11:38:48;11.40;;;11.10;;
2896;SDS011;1458;49.728;9.228;2022-09-16T11:41:31;11.63;;;11.33;;
2896;SDS011;1458;49.728;9.228;2022-09-16T11:44:10;11.73;;;11.43;;
2896;SDS011;1458;49.728;9.228;2022-09-16T11:47:00;11.50;;;11.20;;
2896;SDS011;1458;49.728;9.228;2022-09-16T11:49:45;11.70;;;11.40;;
2896;SDS011;1458;49.728;9.228;2022-09-16T11:52:35;11.33;;;11.03;;
2896;SDS011;1458;49.728;9.228;2022-09-16T11:55:23;10.90;;;10.60;;
2896;SDS011;1458;49.728;9.228;2022-09-16T11:58:16;10.10;;;9.90;;
2896;SDS011;1458;49.728;9.228;2022-09-16T12:00:53;9.90;;;9.70;;
2896;SDS011;1458;49.728;9.228;2022-09-16T12:03:25;10.57;;;10.33;;
2896;SDS011;1458;49.728;9.228;2022-09-16T12:05:59;10.50;;;10.30;;
2896;SDS011;1458;49.728;9.228;2022-09-16T12:08:43;10.70;;;10.40;;
2896;SDS011;1458;49.728;9.228;2022-09-16T12:11:21;9.90;;;9.70;;
2896;SDS011;1458;49.728;9.228;2022-09-16T12:13:59;10.57;;;10.37;;
2896;SDS011;1458;49.728;9.228;2022-09-16T12:16:38;10.77;;;10.47;;
2896;SDS011;1458;49.728;9.228;2022-09-16T12:19:13;10.90;;;10.60;;
2896;SDS011;1458;49.728;9.228;2022-09-16T12:21:47;11.10;;;10.80;;
2896;SDS011;1458;49.728;9.228;2022-09-16T12:24:21;10.50;;;10.30;;
2896;SDS011;1458;49.728;9.228;2022-09-16T12:26:54;11.47;;;11.17;;
2896;SDS011;1458;49.728;9.228;2022-09-16T12:29:30;12.00;;;11.70;;
2896;SDS011;1458;49.728;9.228;2022-09-16T12:32:07;11.37;;;11.07;;
2896;SDS011;1458;49.728;9.228;2022-09-16T12:34:42;11.33;;;11.03;;
2896;SDS011;1458;49.728;9.228;2022-09-16T12:37:21;12.37;;;12.07;;
2896;SDS011;1458;49.728;9.228;2022-09-16T12:39:59;12.00;;;11.70;;
2896;SDS011;1458;49.728;9.228;2022-09-16T12:46:08;11.93;;;11.63;;
2896;SDS011;1458;49.728;9.228;2022-09-16T12:52:38;12.40;;;12.00;;
2896;SDS011;1458;49.728;9.228;2022-09-16T12:55:41;12.40;;;12.00;;
2896;SDS011;1458;49.728;9.228;2022-09-16T12:58:25;11.80;;;11.50;;
2896;SDS011;1458;49.728;9.228;2022-09-16T13:01:24;11.60;;;11.30;;
2896;SDS011;1458;49.728;9.228;2022-09-16T13:03:55;11.30;;;11.00;;
2896;SDS011;1458;49.728;9.228;2022-09-16T13:06:26;12.07;;;11.77;;
2896;SDS011;1458;49.728;9.228;2022-09-16T13:08:56;11.80;;;11.50;;
2896;SDS011;1458;49.728;9.228;2022-09-16T13:11:51;11.90;;;11.60;;
2896;SDS011;1458;49.728;9.228;2022-09-16T13:14:22;11.90;;;11.60;;
2896;SDS011;1458;49.728;9.228;2022-09-16T13:16:55;11.40;;;11.10;;
2896;SDS011;1458;49.728;9.228;2022-09-16T13:19:26;11.50;;;11.20;;
2896;SDS011;1458;49.728;9.228;2022-09-16T13:22:20;11.40;;;11.10;;
2896;SDS011;1458;49.728;9.228;2022-09-16T13:24:56;11.60;;;11.30;;
2896;SDS011;1458;49.728;9.228;2022-09-16T13:27:37;11.10;;;10.80;;
2896;SDS011;1458;49.728;9.228;2022-09-16T13:30:14;11.40;;;11.10;;
2896;SDS011;1458;49.728;9.228;2022-09-16T13:33:21;11.50;;;11.20;;
2896;SDS011;1458;49.728;9.228;2022-09-16T13:38:56;12.20;;;11.90;;
2896;SDS011;1458;49.728;9.228;2022-09-16T13:41:33;11.50;;;11.20;;
2896;SDS011;1458;49.728;9.228;2022-09-16T13:44:38;10.60;;;10.30;;
2896;SDS011;1458;49.728;9.228;2022-09-16T13:47:05;10.60;;;10.30;;
2896;SDS011;1458;49.728;9.228;2022-09-16T13:49:43;10.20;;;10.00;;
2896;SDS011;1458;49.728;9.228;2022-09-16T13:52:16;10.60;;;10.30;;
2896;SDS011;1458;49.728;9.228;2022-09-16T13:54:48;10.67;;;10.37;;
2896;SDS011;1458;49.728;9.228;2022-09-16T14:00:16;10.77;;;10.47;;
2896;SDS011;1458;49.728;9.228;2022-09-16T14:09:15;10.40;;;10.20;;
2896;SDS011;1458;49.728;9.228;2022-09-16T14:11:56;10.30;;;10.10;;
2896;SDS011;1458;49.728;9.228;2022-09-16T14:14:32;10.60;;;10.30;;
2896;SDS011;1458;49.728;9.228;2022-09-16T14:17:03;9.70;;;9.50;;
2896;SDS011;1458;49.728;9.228;2022-09-16T14:19:40;10.57;;;10.27;;
2896;SDS011;1458;49.728;9.228;2022-09-16T14:22:13;10.60;;;10.30;;
2896;SDS011;1458;49.728;9.228;2022-09-16T14:24:43;9.57;;;9.37;;
2896;SDS011;1458;49.728;9.228;2022-09-16T14:27:19;9.40;;;9.20;;
2896;SDS011;1458;49.728;9.228;2022-09-16T14:29:53;9.47;;;9.27;;
2896;SDS011;1458;49.728;9.228;2022-09-16T14:32:24;8.87;;;8.67;;
2896;SDS011;1458;49.728;9.228;2022-09-16T14:35:00;8.40;;;8.30;;
2896;SDS011;1458;49.728;9.228;2022-09-16T14:37:34;8.33;;;8.23;;
2896;SDS011;1458;49.728;9.228;2022-09-16T14:40:05;7.77;;;7.67;;
2896;SDS011;1458;49.728;9.228;2022-09-16T14:42:39;8.17;;;8.07;;
2896;SDS011;1458;49.728;9.228;2022-09-16T14:45:14;8.80;;;8.60;;
2896;SDS011;1458;49.728;9.228;2022-09-16T14:47:44;9.40;;;9.20;;
2896;SDS011;1458;49.728;9.228;2022-09-16T14:50:14;9.77;;;9.57;;
2896;SDS011;1458;49.728;9.228;2022-09-16T14:52:51;9.80;;;9.60;;
2896;SDS011;1458;49.728;9.228;2022-09-16T14:55:22;10.00;;;9.80;;
2896;SDS011;1458;49.728;9.228;2022-09-16T14:57:52;9.40;;;9.20;;
2896;SDS011;1458;49.728;9.228;2022-09-16T15:00:19;9.73;;;9.53;;
2896;SDS011;1458;49.728;9.228;2022-09-16T15:02:50;10.00;;;9.80;;
2896;SDS011;1458;49.728;9.228;2022-09-16T15:05:23;9.20;;;9.00;;
2896;SDS011;1458;49.728;9.228;2022-09-16T15:08:02;9.27;;;9.07;;
2896;SDS011;1458;49.728;9.228;2022-09-16T15:10:39;9.70;;;9.50;;
2896;SDS011;1458;49.728;9.228;2022-09-16T15:13:12;9.60;;;9.40;;
2896;SDS011;1458;49.728;9.228;2022-09-16T15:15:44;9.90;;;9.70;;
2896;SDS011;1458;49.728;9.228;2022-09-16T15:18:20;9.80;;;9.60;;
2896;SDS011;1458;49.728;9.228;2022-09-16T15:20:55;10.17;;;9.97;;
2896;SDS011;1458;49.728;9.228;2022-09-16T15:23:52;10.37;;;10.17;;
2896;SDS011;1458;49.728;9.228;2022-09-16T15:26:22;10.20;;;10.00;;
2896;SDS011;1458;49.728;9.228;2022-09-16T15:28:53;10.30;;;10.10;;
2896;SDS011;1458;49.728;9.228;2022-09-16T15:31:30;10.33;;;10.13;;
2896;SDS011;1458;49.728;9.228;2022-09-16T15:34:03;10.20;;;10.00;;
2896;SDS011;1458;49.728;9.228;2022-09-16T15:36:46;10.40;;;10.20;;
2896;SDS011;1458;49.728;9.228;2022-09-16T15:39:20;10.33;;;10.13;;
2896;SDS011;1458;49.728;9.228;2022-09-16T15:42:01;10.00;;;9.80;;
2896;SDS011;1458;49.728;9.228;2022-09-16T15:44:37;10.30;;;10.10;;
2896;SDS011;1458;49.728;9.228;2022-09-16T15:47:15;9.70;;;9.50;;
2896;SDS011;1458;49.728;9.228;2022-09-16T15:49:47;9.90;;;9.70;;
2896;SDS011;1458;49.728;9.228;2022-09-16T15:52:19;9.90;;;9.70;;
2896;SDS011;1458;49.728;9.228;2022-09-16T15:54:49;9.40;;;9.20;;
2896;SDS011;1458;49.728;9.228;2022-09-16T15:57:21;9.40;;;9.20;;
2896;SDS011;1458;49.728;9.228;2022-09-16T15:59:57;9.23;;;9.03;;
2896;SDS011;1458;49.728;9.228;2022-09-16T16:02:39;9.50;;;9.30;;
2896;SDS011;1458;49.728;9.228;2022-09-16T16:05:15;9.67;;;9.47;;
2896;SDS011;1458;49.728;9.228;2022-09-16T16:07:46;9.87;;;9.67;;
2896;SDS011;1458;49.728;9.228;2022-09-16T16:10:16;9.40;;;9.20;;
2896;SDS011;1458;49.728;9.228;2022-09-16T16:12:45;9.60;;;9.40;;
2896;SDS011;1458;49.728;9.228;2022-09-16T16:15:15;9.80;;;9.60;;
2896;SDS011;1458;49.728;9.228;2022-09-16T16:17:47;9.70;;;9.50;;
2896;SDS011;1458;49.728;9.228;2022-09-16T16:20:24;9.50;;;9.30;;
2896;SDS011;1458;49.728;9.228;2022-09-16T16:22:55;9.13;;;8.93;;
2896;SDS011;1458;49.728;9.228;2022-09-16T16:25:23;9.20;;;9.00;;
2896;SDS011;1458;49.728;9.228;2022-09-16T16:27:51;8.40;;;8.30;;
2896;SDS011;1458;49.728;9.228;2022-09-16T16:30:18;8.20;;;8.10;;